Página principal
METAR-TAF:

METAR-TAF

Aeroportos :

Ushuaia, Argentina

Aeroporto Internacional de Ushuaia - Malvinas Argentinas

latitude: 54-48S, longitude: 068-19W, altura: 16 m

Observação actual do tempo

O boletim foi feito há 32 minutos, às 23:00 UTC
Vento 17 kt de noroeste com rajadas de 29 kt
Temperatura 14°C
Humidade 31%
Pressão 996 hPa
Visibilidade 10 km ou mais
Nuvens dispersasa uma altura de 4500 ft
Nuvens dispersasa uma altura de 10000 ft

METAR: SAWH 122300Z 32017G29KT 9999 SCT045 SCT100 14/M03 Q0996

Hora: 20:32 (23:32 UTC)

Previsão

O boletim foi feito há 6 horas e 32 minutos, às 17:00 UTC
Previsão válida de 12 às 18 UTC a 13 às 18 UTC
Vento 15 kt de sudoeste com rajadas de 30 kt
Visibilidade 10 km ou mais
Nuvens dispersasa uma altura de 3500 ft
Nuvens fragmentadasa uma altura de 9000 ft
Tornando-se
de 12 às 23 UTC a 13 às 01 UTC
Vento 20 kt de noroeste com rajadas de 40 kt

TAF: SAWH 121700Z 1218/1318 23015G30KT 9999 SCT035 BKN090 TX14/1119Z TN05/1110Z BECMG 1223/1301 32020G40KT

Observações e previsões do tempo de mais de 4000 aeroportos (mensagens METAR e TAF).

As estações disponíveis são os pontos amarelos e vermelhos sobre o mapa.

Mova o rato sobre o mapa para ver o nome da estação.

Depois clique no ponto para visualizar as observações e previsões meteorológicas.

Para alterar o mapa : clique nos botões verdes com uma cruz preta para aumentar o zoom; no botão verde com uma pitada de zoom; ou nas setas verdes para mapas adjacentes.


METAR-TAF: